Time;durP1;ratioP1;P1;durP2;ratioP2;P2;SDS_P1;SDS_P2;PMS_P1;PMS_P2;Temp;Humidity;BMP_temperature;BMP_pressure;BME280_temperature;BME280_humidity;BME280_pressure;Samples;Min_cycle;Max_cycle;Signal;HPM_P1;HPM_P2
2023/01/01 00:02:46;;;;;;;2.58;2.35;;;;;;;6.32;67.24;101546.59;18363648;32;20093;-57
2023/01/01 00:12:50;;;;;;;3.40;3.10;;;;;;;6.20;67.57;101549.66;18359217;32;20102;-57
2023/01/01 00:22:53;;;;;;;6.68;6.25;;;;;;;5.99;68.69;101559.25;18379612;32;20424;-57
2023/01/01 00:32:59;;;;;;;1.55;1.45;;;;;;;6.09;68.51;101538.91;18397002;32;20097;-58
2023/01/01 00:43:02;;;;;;;5.40;1.77;;;;;;;6.16;68.50;101545.19;18369480;32;20112;-57
2023/01/01 00:53:07;;;;;;;6.95;6.32;;;;;;;6.05;68.54;101534.47;18357633;32;20104;-58
2023/01/01 01:03:26;;;;;;;3.40;3.10;;;;;;;6.16;68.56;101552.09;18357126;32;20101;-58
2023/01/01 01:13:31;;;;;;;2.10;2.00;;;;;;;6.29;68.54;101549.06;18355803;32;20454;-58
2023/01/01 01:23:34;;;;;;;2.40;2.15;;;;;;;6.16;68.84;101540.00;18412081;32;20089;-58
2023/01/01 01:33:39;;;;;;;1.50;1.40;;;;;;;6.27;68.21;101542.09;18419756;32;20108;-58
2023/01/01 01:43:54;;;;;;;2.17;2.03;;;;;;;6.15;68.91;101539.97;18419364;32;20156;-58
2023/01/01 01:54:00;;;;;;;4.55;4.15;;;;;;;6.20;68.64;101552.25;18418678;31;20101;-57
2023/01/01 02:04:04;;;;;;;1.27;1.17;;;;;;;6.13;68.52;101539.03;18418058;32;20090;-58
2023/01/01 02:14:08;;;;;;;8.07;5.65;;;;;;;6.12;68.48;101535.53;18417761;32;20101;-58
2023/01/01 02:24:48;;;;;;;7.12;4.62;;;;;;;6.17;68.44;101548.66;18424207;32;20081;-57
2023/01/01 02:34:58;;;;;;;1.90;1.75;;;;;;;6.16;68.88;101559.88;18428916;31;20096;-58
2023/01/01 02:45:01;;;;;;;2.17;1.95;;;;;;;6.20;69.34;101569.50;18426834;32;20108;-58
2023/01/01 02:55:12;;;;;;;2.78;2.58;;;;;;;5.82;71.63;101578.53;18425942;31;20101;-57
2023/01/01 03:05:19;;;;;;;20.40;2.87;;;;;;;4.36;78.02;101562.53;18425793;32;20104;-57
2023/01/01 03:15:27;;;;;;;1.62;1.52;;;;;;;5.32;75.77;101569.78;18425355;32;20148;-58
2023/01/01 03:25:34;;;;;;;1.33;1.30;;;;;;;6.06;72.74;101562.13;18424916;32;20100;-57
2023/01/01 03:35:41;;;;;;;3.08;2.80;;;;;;;6.44;71.32;101550.44;18424067;32;20471;-58
2023/01/01 03:45:46;;;;;;;1.45;1.35;;;;;;;6.48;70.67;101531.53;18424480;32;20089;-58
2023/01/01 03:55:55;;;;;;;3.90;2.75;;;;;;;6.71;70.02;101542.66;18419729;32;158590;-57
2023/01/01 04:05:59;;;;;;;2.60;2.40;;;;;;;6.66;70.02;101550.28;18423174;32;20088;-57
2023/01/01 04:16:04;;;;;;;3.83;3.20;;;;;;;6.90;69.22;101536.34;18423000;32;20097;-57
2023/01/01 04:26:12;;;;;;;1.52;1.42;;;;;;;6.89;69.48;101532.00;18423350;32;20433;-58
2023/01/01 04:36:17;;;;;;;0.70;0.70;;;;;;;6.84;69.68;101543.06;18422331;32;20357;-58
2023/01/01 04:46:22;;;;;;;2.87;2.67;;;;;;;6.95;69.64;101546.88;18422654;32;20141;-58
2023/01/01 04:56:27;;;;;;;1.30;1.20;;;;;;;6.99;69.38;101564.31;18421155;32;20121;-57
2023/01/01 05:06:30;;;;;;;1.05;1.05;;;;;;;6.94;69.51;101540.78;18421020;32;20097;-58
2023/01/01 05:16:36;;;;;;;0.65;0.65;;;;;;;6.89;69.69;101550.16;18420514;32;20097;-57
2023/01/01 05:26:43;;;;;;;1.30;0.82;;;;;;;6.17;70.96;101551.25;18420168;32;20120;-58
2023/01/01 05:36:47;;;;;;;4.87;2.92;;;;;;;6.64;70.04;101548.50;18419893;32;20097;-58
2023/01/01 05:46:51;;;;;;;1.40;1.30;;;;;;;6.97;69.01;101552.09;18418730;32;20407;-58
2023/01/01 05:56:55;;;;;;;1.77;1.67;;;;;;;6.82;69.57;101575.84;18418137;32;20101;-57
2023/01/01 06:06:58;;;;;;;3.40;2.17;;;;;;;6.70;69.90;101587.62;18418128;32;20475;-57
2023/01/01 06:17:03;;;;;;;2.03;1.90;;;;;;;6.91;69.49;101602.13;18417625;32;20097;-58
2023/01/01 06:27:06;;;;;;;1.65;1.55;;;;;;;6.81;70.12;101634.69;18417037;32;20089;-57
2023/01/01 06:37:12;;;;;;;2.42;1.30;;;;;;;6.76;70.46;101637.13;18416843;32;20097;-58
2023/01/01 06:47:17;;;;;;;1.08;1.05;;;;;;;6.89;69.67;101637.53;18417362;32;20085;-58
2023/01/01 06:57:22;;;;;;;0.90;0.90;;;;;;;5.55;74.05;101633.69;18415353;32;20108;-57
2023/01/01 07:07:25;;;;;;;2.17;2.03;;;;;;;6.09;72.27;101636.56;18418690;32;20451;-58
2023/01/01 07:17:37;;;;;;;1.40;1.40;;;;;;;6.70;70.14;101642.09;18425406;32;20089;-58
2023/01/01 07:27:40;;;;;;;1.10;1.10;;;;;;;6.62;70.17;101639.25;18406698;32;20720;-57
2023/01/01 07:37:46;;;;;;;11.90;2.45;;;;;;;6.63;70.69;101648.81;18360770;31;20136;-57
2023/01/01 07:47:51;;;;;;;0.60;0.60;;;;;;;6.77;70.78;101649.28;18360162;32;20166;-58
2023/01/01 07:57:55;;;;;;;0.60;0.60;;;;;;;6.87;70.81;101670.34;18361073;32;20109;-58
2023/01/01 08:07:58;;;;;;;0.98;0.98;;;;;;;6.98;70.59;101675.91;18359608;32;20153;-58
2023/01/01 08:18:04;;;;;;;1.90;1.80;;;;;;;7.03;70.66;101702.91;18358656;32;20138;-58
2023/01/01 08:28:09;;;;;;;0.70;0.70;;;;;;;7.14;70.76;101704.13;18364892;32;20116;-58
2023/01/01 08:38:13;;;;;;;4.90;1.77;;;;;;;7.17;71.36;101713.75;18358298;32;20429;-58
2023/01/01 08:48:16;;;;;;;0.50;0.50;;;;;;;7.33;70.66;101738.50;18357878;32;20468;-58
2023/01/01 08:58:21;;;;;;;8.30;4.15;;;;;;;7.65;70.54;101728.28;18358149;32;20097;-58
2023/01/01 09:08:24;;;;;;;4.57;1.50;;;;;;;7.92;70.33;101719.56;18381071;32;20099;-58
2023/01/01 09:18:28;;;;;;;0.62;0.62;;;;;;;8.02;70.05;101723.31;18356660;32;20146;-58
2023/01/01 09:28:32;;;;;;;1.45;1.37;;;;;;;8.13;69.53;101719.28;18354106;32;20101;-58
2023/01/01 09:38:36;;;;;;;2.33;1.50;;;;;;;8.25;69.29;101710.97;18354760;32;20453;-58
2023/01/01 09:48:49;;;;;;;4.43;2.60;;;;;;;8.20;69.71;101722.94;18355239;32;20097;-58
2023/01/01 09:58:55;;;;;;;1.90;1.80;;;;;;;8.38;69.48;101714.78;18354165;32;20116;-58
2023/01/01 10:09:08;;;;;;;2.08;1.92;;;;;;;8.55;69.30;101738.72;18354953;32;20108;-58
2023/01/01 10:19:22;;;;;;;1.50;1.40;;;;;;;8.63;69.65;101723.31;18350968;32;20089;-58
2023/01/01 10:29:29;;;;;;;2.17;2.08;;;;;;;8.82;69.73;101723.78;18352196;32;20130;-58
2023/01/01 10:39:34;;;;;;;1.33;1.17;;;;;;;8.94;69.25;101705.91;18352832;32;20094;-58
2023/01/01 10:49:54;;;;;;;1.60;1.50;;;;;;;9.33;68.81;101705.97;18403507;32;20498;-58
2023/01/01 11:00:20;;;;;;;0.70;0.70;;;;;;;9.27;69.37;101686.72;18421603;32;20147;-59
2023/01/01 11:10:25;;;;;;;1.67;1.58;;;;;;;9.74;68.08;101658.22;18390957;32;20088;-60
2023/01/01 11:20:29;;;;;;;2.25;2.15;;;;;;;9.74;68.51;101622.59;18393866;32;20111;-58
2023/01/01 11:30:32;;;;;;;0.93;0.93;;;;;;;10.13;67.29;101639.87;18419748;32;20182;-59
2023/01/01 11:40:39;;;;;;;1.02;1.00;;;;;;;10.27;66.58;101632.31;18414612;32;20093;-60
2023/01/01 11:50:50;;;;;;;0.95;0.95;;;;;;;9.99;67.53;101621.34;18423431;31;20496;-60
2023/01/01 12:01:02;;;;;;;3.42;3.10;;;;;;;9.36;70.64;101633.94;18423033;32;20522;-60
2023/01/01 12:11:14;;;;;;;2.15;1.45;;;;;;;9.80;69.12;101608.78;18383039;32;20089;-60
2023/01/01 12:21:22;;;;;;;0.75;0.75;;;;;;;10.24;68.92;101598.34;18372161;32;20433;-60
2023/01/01 12:31:32;;;;;;;2.20;1.83;;;;;;;10.06;69.44;101595.38;18405685;32;20097;-60
2023/01/01 12:41:43;;;;;;;1.40;1.30;;;;;;;10.12;69.72;101603.34;18389341;32;20093;-60
2023/01/01 12:51:51;;;;;;;1.02;1.02;;;;;;;10.61;68.73;101599.87;18357473;32;20112;-60
2023/01/01 13:01:56;;;;;;;1.60;1.10;;;;;;;10.17;70.59;101595.59;18357271;32;20388;-60
2023/01/01 13:12:03;;;;;;;1.95;1.30;;;;;;;9.70;73.12;101610.34;18406531;32;20117;-59
2023/01/01 13:22:40;;;;;;;1.25;1.15;;;;;;;9.96;72.29;101610.88;18401240;32;20370;-60
2023/01/01 13:33:13;;;;;;;0.90;0.90;;;;;;;10.12;71.87;101611.19;18355884;31;20104;-60
2023/01/01 13:43:32;;;;;;;2.25;2.10;;;;;;;9.95;73.16;101611.72;18412730;32;20097;-60
2023/01/01 13:53:43;;;;;;;;;;;;;;;10.26;71.62;101609.69;18418443;31;20129;-60
2023/01/01 14:03:50;;;;;;;0.90;0.90;;;;;;;10.52;70.71;101627.59;18417917;32;19977;-60
2023/01/01 14:13:54;;;;;;;1.00;0.80;;;;;;;10.57;70.68;101638.13;18359337;32;20098;-60
2023/01/01 14:23:59;;;;;;;1.33;1.25;;;;;;;10.57;69.94;101638.13;18391243;32;20107;-60
2023/01/01 14:34:14;;;;;;;1.73;1.62;;;;;;;10.79;68.92;101641.97;18426466;32;20364;-60
2023/01/01 14:44:20;;;;;;;0.60;0.60;;;;;;;10.43;70.13;101631.75;18365782;32;20092;-60
2023/01/01 14:54:29;;;;;;;1.00;1.00;;;;;;;10.57;69.60;101639.84;18362057;31;20421;-60
2023/01/01 15:04:33;;;;;;;11.00;1.95;;;;;;;10.61;69.75;101634.69;18361734;32;20365;-60
2023/01/01 15:14:39;;;;;;;1.62;1.25;;;;;;;10.70;69.83;101626.16;18422490;32;20103;-60
2023/01/01 15:24:45;;;;;;;0.85;0.85;;;;;;;10.80;69.55;101633.28;18394115;32;20140;-60
2023/01/01 15:34:50;;;;;;;1.90;1.30;;;;;;;10.91;69.34;101654.37;18360616;32;20655;-60
2023/01/01 15:44:54;;;;;;;1.80;1.67;;;;;;;10.66;70.48;101656.56;18421739;32;20361;-60
2023/01/01 15:54:59;;;;;;;0.50;0.50;;;;;;;9.75;74.64;101668.66;18422761;31;20127;-59
2023/01/01 16:05:02;;;;;;;1.40;1.35;;;;;;;10.73;70.30;101675.81;18421620;32;20116;-60
2023/01/01 16:15:08;;;;;;;1.42;1.33;;;;;;;9.87;73.72;101677.63;18360527;32;20145;-59
2023/01/01 16:25:15;;;;;;;1.23;0.93;;;;;;;10.04;72.80;101684.06;18388268;32;20093;-59
2023/01/01 16:35:20;;;;;;;1.02;1.02;;;;;;;10.20;72.28;101692.19;18421670;32;20092;-59
2023/01/01 16:45:23;;;;;;;1.10;1.00;;;;;;;10.04;72.61;101694.50;18389185;32;20093;-59
2023/01/01 16:55:28;;;;;;;2.47;1.35;;;;;;;9.24;75.38;101717.03;18421031;31;20101;-59
2023/01/01 17:05:31;;;;;;;3.97;2.78;;;;;;;9.35;75.91;101707.78;18416501;32;20512;-59
2023/01/01 17:15:36;;;;;;;0.90;0.60;;;;;;;10.09;72.31;101700.69;18356908;32;20112;-59
2023/01/01 17:25:39;;;;;;;2.72;2.15;;;;;;;10.37;71.81;101702.97;18392215;32;20108;-59
2023/01/01 17:35:43;;;;;;;0.88;0.88;;;;;;;10.04;73.52;101712.75;18431573;31;20088;-59
2023/01/01 17:45:46;;;;;;;2.20;1.05;;;;;;;10.07;74.87;101705.00;18511726;31;20097;-60
2023/01/01 17:55:51;;;;;;;2.92;1.70;;;;;;;9.79;74.14;101707.03;18351913;32;20441;-60
2023/01/01 18:05:55;;;;;;;1.70;1.20;;;;;;;11.04;70.19;101720.75;18376205;32;20108;-60
2023/01/01 18:16:01;;;;;;;1.27;1.00;;;;;;;10.84;70.65;101728.25;18378499;32;20094;-60
2023/01/01 18:26:06;;;;;;;3.30;1.45;;;;;;;10.67;71.09;101722.72;18371575;32;20129;-60
2023/01/01 18:36:14;;;;;;;1.75;1.60;;;;;;;10.63;71.69;101724.41;18354916;32;20122;-60
2023/01/01 18:46:17;;;;;;;2.75;2.40;;;;;;;10.81;70.89;101721.25;18408054;32;20097;-60
2023/01/01 18:56:23;;;;;;;1.87;1.40;;;;;;;11.23;69.23;101721.06;18384508;32;20437;-60
2023/01/01 19:06:29;;;;;;;0.82;0.73;;;;;;;11.20;69.42;101727.16;18408976;32;20090;-59
2023/01/01 19:16:33;;;;;;;2.20;2.00;;;;;;;11.08;69.55;101721.69;18359741;32;20158;-60
2023/01/01 19:26:38;;;;;;;0.57;0.57;;;;;;;11.11;69.34;101716.53;18452632;31;20108;-60
2023/01/01 19:36:43;;;;;;;1.80;1.62;;;;;;;11.20;68.66;101711.47;18369832;32;20491;-59
2023/01/01 19:46:47;;;;;;;0.60;0.60;;;;;;;11.26;68.95;101694.09;18378067;32;20115;-61
2023/01/01 19:56:52;;;;;;;2.70;1.92;;;;;;;10.68;70.76;101690.56;18387932;32;20453;-60
2023/01/01 20:06:55;;;;;;;1.08;0.90;;;;;;;11.26;68.37;101699.34;18409328;32;20449;-60
2023/01/01 20:17:00;;;;;;;0.40;0.40;;;;;;;10.95;69.44;101697.09;18370207;32;20157;-60
2023/01/01 20:27:04;;;;;;;2.20;1.58;;;;;;;10.99;69.66;101698.03;18399309;32;20157;-61
2023/01/01 20:47:30;;;;;;;2.20;1.85;;;;;;;11.22;68.43;101693.16;18371220;31;20085;-60
2023/01/01 20:57:35;;;;;;;2.28;1.60;;;;;;;10.74;69.73;101695.00;18355642;32;20449;-61
2023/01/01 21:07:43;;;;;;;0.88;0.82;;;;;;;10.87;69.10;101694.34;18374498;32;20093;-60
2023/01/01 21:17:49;;;;;;;0.95;0.95;;;;;;;10.96;68.08;101686.66;18414623;32;20093;-60
2023/01/01 21:27:53;;;;;;;0.98;0.98;;;;;;;10.95;67.37;101682.31;18400894;32;20128;-61
2023/01/01 21:37:59;;;;;;;1.75;1.65;;;;;;;10.82;67.23;101688.19;18417358;32;20096;-60
2023/01/01 21:48:10;;;;;;;2.47;1.80;;;;;;;10.62;67.49;101695.66;18417058;32;20085;-60
2023/01/01 22:08:39;;;;;;;1.55;1.12;;;;;;;10.50;68.20;101689.34;18350350;32;20448;-60
2023/01/01 22:18:44;;;;;;;2.30;2.15;;;;;;;10.46;67.54;101684.03;18350111;32;20373;-60
2023/01/01 22:28:49;;;;;;;0.65;0.65;;;;;;;10.39;67.18;101670.84;18348930;32;20116;-60
2023/01/01 22:38:55;;;;;;;0.40;0.40;;;;;;;10.06;67.37;101669.34;18364688;32;20093;-60
2023/01/01 22:49:00;;;;;;;0.93;0.82;;;;;;;9.90;67.29;101654.22;18360408;32;20112;-60
2023/01/01 22:59:05;;;;;;;0.65;0.65;;;;;;;9.54;67.64;101656.94;18354603;32;20100;-60
2023/01/01 23:09:10;;;;;;;1.90;1.80;;;;;;;9.53;67.21;101649.97;18361583;32;20104;-60
2023/01/01 23:19:14;;;;;;;1.48;1.37;;;;;;;9.41;66.87;101647.94;18361695;31;20097;-60
2023/01/01 23:29:18;;;;;;;1.87;1.77;;;;;;;9.31;66.90;101635.56;18361086;32;20093;-60
2023/01/01 23:39:22;;;;;;;1.83;1.73;;;;;;;9.20;68.80;101647.47;18360894;32;20112;-59
2023/01/01 23:49:26;;;;;;;2.20;1.40;;;;;;;9.33;69.37;101638.22;18359798;32;20097;-59
2023/01/01 23:59:31;;;;;;;1.77;1.60;;;;;;;9.10;72.08;101626.41;18360030;32;20112;-59
